Time;durP1;ratioP1;P1;durP2;ratioP2;P2;SDS_P1;SDS_P2;PMS_P1;PMS_P2;Temp;Humidity;BMP_temperature;BMP_pressure;BME280_temperature;BME280_humidity;BME280_pressure;Samples;Min_cycle;Max_cycle;Signal;HPM_P1;HPM_P2
2023/08/25 00:00:21;;;;;;;;;11.00;11.00;;;;;24.77;66.43;100652.75;5090299;27;45984;-66
2023/08/25 00:02:47;;;;;;;;;9.00;9.00;;;;;24.77;66.97;100646.50;5096268;27;45375;-66
2023/08/25 00:05:12;;;;;;;;;9.75;9.75;;;;;24.76;66.92;100642.06;5093771;27;45554;-65
2023/08/25 00:07:37;;;;;;;;;10.00;10.00;;;;;24.75;67.15;100648.53;5089185;27;67302;-66
2023/08/25 00:10:04;;;;;;;;;9.25;9.25;;;;;24.73;67.43;100645.97;5083939;27;52898;-66
2023/08/25 00:12:29;;;;;;;;;12.50;10.00;;;;;24.70;67.37;100640.03;5089225;27;45474;-66
2023/08/25 00:14:54;;;;;;;;;9.00;9.00;;;;;24.66;67.64;100633.25;5081262;27;49313;-66
2023/08/25 00:17:21;;;;;;;;;9.25;9.25;;;;;24.63;67.95;100630.81;5089740;27;65724;-66
2023/08/25 00:19:46;;;;;;;;;12.00;12.00;;;;;24.60;67.85;100630.16;5091785;27;46881;-67
2023/08/25 00:22:12;;;;;;;;;13.00;12.00;;;;;24.59;68.14;100627.63;5089481;27;45427;-66
2023/08/25 00:24:37;;;;;;;;;10.00;10.00;;;;;24.57;67.63;100626.94;5084574;27;64610;-66
2023/08/25 00:27:03;;;;;;;;;11.33;10.00;;;;;24.57;68.32;100632.38;5093180;27;45445;-66
2023/08/25 00:29:28;;;;;;;;;8.25;8.25;;;;;24.55;68.67;100623.56;5090709;27;45427;-66
2023/08/25 00:31:53;;;;;;;;;8.25;8.25;;;;;24.55;67.69;100621.69;5092795;27;51773;-66
2023/08/25 00:34:19;;;;;;;;;9.00;7.25;;;;;24.57;68.78;100616.06;5087041;27;67224;-66
2023/08/25 00:36:44;;;;;;;;;9.25;8.50;;;;;24.58;68.91;100612.34;5085223;27;62870;-67
2023/08/25 00:39:10;;;;;;;;;8.50;8.00;;;;;24.57;68.36;100608.75;5091047;27;45446;-66
2023/08/25 00:41:35;;;;;;;;;7.75;7.75;;;;;24.56;68.60;100601.63;5069687;27;45517;-66
2023/08/25 00:44:01;;;;;;;;;8.25;8.25;;;;;24.55;68.93;100596.38;5085862;27;45474;-66
2023/08/25 00:46:26;;;;;;;;;7.67;7.67;;;;;24.55;68.63;100602.66;5085720;27;45773;-66
2023/08/25 00:48:52;;;;;;;;;8.00;8.00;;;;;24.54;69.40;100608.25;5083783;27;55757;-65
2023/08/25 00:51:18;;;;;;;;;11.33;11.33;;;;;24.53;69.31;100604.69;5070747;27;45359;-66
2023/08/25 00:53:43;;;;;;;;;11.67;11.00;;;;;24.49;69.86;100600.63;5085644;27;45431;-66
2023/08/25 00:56:11;;;;;;;;;9.25;8.00;;;;;24.48;69.37;100598.91;5068742;27;45617;-66
2023/08/25 00:58:36;;;;;;;;;10.50;9.25;;;;;24.45;69.23;100599.28;5058723;28;73446;-66
2023/08/25 01:01:03;;;;;;;;;8.00;8.00;;;;;24.45;69.83;100600.09;5098942;27;64998;-65
2023/08/25 01:03:29;;;;;;;;;7.25;6.00;;;;;24.46;69.40;100603.69;5092106;27;45425;-66
2023/08/25 01:05:54;;;;;;;;;9.50;8.50;;;;;24.43;69.58;100606.72;5098406;27;45664;-66
2023/08/25 01:08:21;;;;;;;;;12.25;10.00;;;;;24.41;69.35;100620.50;5076277;27;45382;-66
2023/08/25 01:11:15;;;;;;;;;10.50;9.00;;;;;24.40;69.73;100605.22;5091937;27;45425;-66
2023/08/25 01:14:09;;;;;;;;;6.75;6.75;;;;;24.38;70.22;100603.69;5072427;27;45397;-65
2023/08/25 01:16:52;;;;;;;;;8.75;8.75;;;;;24.38;70.04;100615.41;5090909;27;45364;-66
2023/08/25 01:19:39;;;;;;;;;10.50;9.50;;;;;24.39;69.86;100613.53;5073917;27;46211;-66
2023/08/25 01:22:07;;;;;;;;;11.50;10.75;;;;;24.38;70.09;100612.72;5086748;27;45378;-65
2023/08/25 01:24:35;;;;;;;;;8.75;8.00;;;;;24.37;70.59;100611.00;5085950;27;45471;-66
2023/08/25 01:27:01;;;;;;;;;11.75;11.00;;;;;24.37;70.11;100613.72;5072644;27;67197;-65
2023/08/25 01:29:26;;;;;;;;;9.25;9.25;;;;;24.37;70.11;100618.31;5072055;27;46260;-65
2023/08/25 01:31:52;;;;;;;;;12.25;9.25;;;;;24.34;70.73;100618.66;5096727;27;52260;-65
2023/08/25 01:34:17;;;;;;;;;11.50;11.50;;;;;24.32;70.64;100601.69;5080502;27;45369;-65
2023/08/25 01:36:53;;;;;;;;;12.50;10.75;;;;;24.32;69.85;100602.50;5084898;27;45426;-65
2023/08/25 01:39:18;;;;;;;;;11.00;9.25;;;;;24.33;70.74;100603.38;5065871;27;45919;-65
2023/08/25 01:41:49;;;;;;;;;12.25;10.50;;;;;24.33;71.00;100593.34;5097602;27;45600;-65
2023/08/25 01:44:18;;;;;;;;;9.00;9.00;;;;;24.33;70.22;100595.22;5079846;27;45380;-65
2023/08/25 01:46:48;;;;;;;;;10.75;9.25;;;;;24.27;70.63;100597.63;5080671;27;45644;-65
2023/08/25 01:49:15;;;;;;;;;11.25;9.50;;;;;24.26;71.22;100593.19;5065874;27;47271;-65
2023/08/25 01:51:41;;;;;;;;;9.75;9.75;;;;;24.25;70.96;100585.22;5070301;27;45764;-65
2023/08/25 01:54:07;;;;;;;;;10.75;9.25;;;;;24.23;70.52;100588.09;5077736;27;45533;-65
2023/08/25 01:56:32;;;;;;;;;10.33;10.00;;;;;24.22;71.18;100597.28;5090813;27;65021;-65
2023/08/25 01:58:57;;;;;;;;;8.67;8.67;;;;;24.19;71.69;100599.47;5067102;27;69818;-65
2023/08/25 02:01:23;;;;;;;;;9.75;9.75;;;;;24.14;71.75;100599.97;5092727;27;66634;-65
2023/08/25 02:03:48;;;;;;;;;11.00;11.00;;;;;24.13;71.46;100597.44;5086660;27;45494;-66
2023/08/25 02:06:14;;;;;;;;;8.75;8.75;;;;;24.10;71.81;100593.19;5093871;27;56799;-65
2023/08/25 02:08:39;;;;;;;;;10.25;8.00;;;;;24.11;71.27;100597.63;5090380;27;66986;-65
2023/08/25 02:11:04;;;;;;;;;12.67;10.33;;;;;24.12;72.00;100593.88;5093691;27;70389;-65
2023/08/25 02:13:30;;;;;;;;;9.75;9.50;;;;;24.12;71.38;100602.03;5085319;27;45738;-65
2023/08/25 02:15:55;;;;;;;;;9.00;9.00;;;;;24.09;71.92;100595.06;5078325;27;45454;-66
2023/08/25 02:18:21;;;;;;;;;11.75;10.50;;;;;24.07;72.20;100590.84;5083079;27;45903;-66
2023/08/25 02:20:46;;;;;;;;;12.25;10.25;;;;;24.07;72.37;100590.84;5088092;27;45440;-65
2023/08/25 02:23:11;;;;;;;;;11.00;11.00;;;;;24.07;72.22;100579.97;5088587;27;45570;-65
2023/08/25 02:25:37;;;;;;;;;9.33;9.33;;;;;24.07;72.40;100569.09;5092726;27;63200;-65
2023/08/25 02:28:02;;;;;;;;;11.00;9.25;;;;;24.08;72.36;100570.81;5087073;27;68102;-65
2023/08/25 02:30:28;;;;;;;;;9.25;9.25;;;;;24.07;71.22;100567.22;5090836;27;45352;-65
2023/08/25 02:32:54;;;;;;;;;11.75;11.75;;;;;24.08;71.40;100562.66;5067852;27;51338;-66
2023/08/25 02:35:20;;;;;;;;;13.33;11.67;;;;;24.13;72.09;100553.97;5087208;27;45562;-66
2023/08/25 02:37:59;;;;;;;;;14.75;14.00;;;;;24.14;72.44;100533.94;5084303;27;45733;-65
2023/08/25 02:40:26;;;;;;;;;16.50;16.25;;;;;24.14;72.08;100533.94;5081732;27;45352;-65
2023/08/25 02:42:52;;;;;;;;;15.33;15.00;;;;;24.10;73.06;100530.72;5082931;27;45438;-65
2023/08/25 02:45:18;;;;;;;;;18.67;16.67;;;;;24.04;72.56;100528.69;5089398;27;45379;-65
2023/08/25 02:47:43;;;;;;;;;14.67;14.33;;;;;23.99;73.56;100528.34;5094197;27;46237;-65
2023/08/25 02:50:09;;;;;;;;;15.75;11.50;;;;;23.94;73.01;100524.28;5093134;27;72425;-66
2023/08/25 02:52:34;;;;;;;;;16.00;15.33;;;;;23.95;73.04;100520.53;5083108;27;45312;-65
2023/08/25 02:55:00;;;;;;;;;13.67;13.67;;;;;23.95;73.05;100519.72;5089149;27;45407;-65
2023/08/25 02:57:25;;;;;;;;;18.67;15.33;;;;;23.92;73.55;100509.16;5091602;27;46504;-65
2023/08/25 02:59:50;;;;;;;;;13.50;13.50;;;;;23.90;74.15;100522.94;5084998;27;61886;-65
2023/08/25 03:02:16;;;;;;;;;14.00;14.00;;;;;23.87;75.25;100527.81;5085561;27;59829;-65
2023/08/25 03:04:41;;;;;;;;;15.67;14.33;;;;;23.84;74.31;100515.44;5084244;27;45317;-65
2023/08/25 03:07:06;;;;;;;;;17.67;16.33;;;;;23.85;74.24;100522.56;5092530;27;45579;-66
2023/08/25 03:09:32;;;;;;;;;18.33;15.33;;;;;23.87;74.59;100523.25;5089742;27;73641;-66
2023/08/25 03:11:57;;;;;;;;;20.67;17.67;;;;;23.90;74.22;100536.50;5096384;27;45401;-65
2023/08/25 03:14:26;;;;;;;;;23.00;19.67;;;;;23.95;75.51;100553.13;5091101;27;68719;-65
2023/08/25 03:16:52;;;;;;;;;14.33;14.33;;;;;23.96;75.69;100567.56;5088091;27;46067;-65
2023/08/25 03:19:17;;;;;;;;;16.67;15.33;;;;;23.96;75.17;100578.41;5097039;27;45378;-65
2023/08/25 03:21:42;;;;;;;;;23.00;18.67;;;;;23.94;75.38;100573.16;5090134;27;69323;-65
2023/08/25 03:24:08;;;;;;;;;17.00;17.00;;;;;23.94;75.16;100573.16;5089191;27;63451;-65
2023/08/25 03:26:33;;;;;;;;;23.67;23.00;;;;;23.97;75.98;100584.72;5068587;27;60316;-65
2023/08/25 03:28:58;;;;;;;;;27.67;26.00;;;;;23.95;75.95;100599.31;5089437;27;65902;-65
2023/08/25 03:31:24;;;;;;;;;29.67;28.33;;;;;23.92;75.93;100601.50;5098019;27;69228;-65
2023/08/25 03:33:49;;;;;;;;;25.67;23.67;;;;;23.89;75.87;100604.53;5072270;28;59285;-65
2023/08/25 03:36:14;;;;;;;;;27.00;26.00;;;;;23.91;75.71;100608.81;5089070;27;46019;-65
2023/08/25 03:38:40;;;;;;;;;37.00;31.00;;;;;23.94;76.26;100604.91;5091431;27;45355;-65
2023/08/25 03:41:05;;;;;;;;;27.67;26.67;;;;;23.97;77.38;100592.88;5087251;27;67551;-64
2023/08/25 03:43:30;;;;;;;;;31.33;28.33;;;;;23.97;77.33;100590.16;5087709;27;45549;-64
2023/08/25 03:45:56;;;;;;;;;30.67;29.33;;;;;23.91;76.95;100600.66;5088998;27;46099;-64
2023/08/25 03:48:21;;;;;;;;;26.00;25.00;;;;;23.87;77.28;100591.13;5083203;27;45426;-65
2023/08/25 03:50:47;;;;;;;;;34.33;32.33;;;;;23.89;78.38;100589.09;5090981;27;49132;-64
2023/08/25 03:53:13;;;;;;;;;38.33;32.00;;;;;23.86;76.68;100584.00;5077679;27;45568;-65
2023/08/25 03:55:38;;;;;;;;;38.33;32.33;;;;;23.86;77.37;100577.72;5084210;27;45446;-65
2023/08/25 03:58:04;;;;;;;;;30.33;25.00;;;;;23.87;76.51;100572.13;5087059;27;72772;-65
2023/08/25 04:00:29;;;;;;;;;15.67;13.00;;;;;23.91;76.56;100568.09;5090743;27;57619;-64
2023/08/25 04:02:54;;;;;;;;;41.33;33.67;;;;;23.92;78.77;100583.38;5095628;27;70115;-64
2023/08/25 04:05:20;;;;;;;;;42.67;36.00;;;;;23.84;79.53;100583.31;5094822;27;70814;-65
2023/08/25 04:07:45;;;;;;;;;36.00;30.33;;;;;23.75;77.90;100582.47;5095924;27;45213;-64
2023/08/25 04:10:10;;;;;;;;;34.33;32.33;;;;;23.81;78.49;100582.81;5087178;27;45374;-65
2023/08/25 04:12:36;;;;;;;;;33.33;31.00;;;;;23.81;80.55;100580.94;5084862;27;63593;-65
2023/08/25 04:15:01;;;;;;;;;30.33;30.00;;;;;23.78;79.06;100573.97;5085496;27;65901;-65
2023/08/25 04:17:26;;;;;;;;;39.33;32.67;;;;;23.82;79.40;100579.06;5086846;27;45316;-65
2023/08/25 04:19:52;;;;;;;;;40.33;34.00;;;;;23.79;79.67;100580.25;5092818;27;45169;-65
2023/08/25 04:22:17;;;;;;;;;31.67;29.33;;;;;23.78;78.71;100573.16;5091610;27;62067;-64
2023/08/25 04:24:42;;;;;;;;;38.33;32.33;;;;;23.82;79.14;100560.06;5078276;27;73982;-65
2023/08/25 04:27:08;;;;;;;;;33.67;31.33;;;;;23.86;78.07;100558.72;5094031;27;45673;-64
2023/08/25 04:29:33;;;;;;;;;35.33;30.67;;;;;23.91;77.80;100561.78;5094492;27;48707;-64
2023/08/25 04:31:58;;;;;;;;;35.33;31.33;;;;;23.95;77.94;100566.72;5095897;27;45641;-65
2023/08/25 04:34:24;;;;;;;;;32.33;30.00;;;;;24.00;77.20;100563.50;5068984;27;55699;-65
2023/08/25 04:36:49;;;;;;;;;40.00;35.00;;;;;24.04;77.22;100555.84;5068656;27;71712;-65
2023/08/25 04:39:14;;;;;;;;;35.67;32.00;;;;;24.06;77.57;100540.22;5093938;27;67829;-65
2023/08/25 04:41:41;;;;;;;;;38.00;29.67;;;;;24.10;76.86;100547.84;5089658;27;48893;-64
2023/08/25 04:44:06;;;;;;;;;38.33;32.00;;;;;24.13;77.27;100552.09;5098035;27;45444;-65
2023/08/25 04:46:32;;;;;;;;;35.00;32.00;;;;;24.13;76.45;100552.09;5093953;27;45519;-65
2023/08/25 04:48:57;;;;;;;;;38.33;32.00;;;;;24.14;77.45;100551.06;5097176;27;45710;-65
2023/08/25 04:51:22;;;;;;;;;36.67;33.00;;;;;24.16;76.99;100548.19;5089707;27;64589;-65
2023/08/25 04:53:48;;;;;;;;;41.33;32.33;;;;;24.16;76.47;100546.34;5087812;27;46101;-65
2023/08/25 04:56:14;;;;;;;;;40.00;35.67;;;;;24.11;77.61;100551.44;5089240;27;71227;-65
2023/08/25 04:58:40;;;;;;;;;38.67;31.67;;;;;24.08;76.44;100554.50;5101435;27;45367;-64
2023/08/25 05:01:05;;;;;;;;;46.33;36.67;;;;;24.08;76.72;100546.34;5088235;27;45567;-65
2023/08/25 05:03:31;;;;;;;;;34.67;31.33;;;;;24.07;77.08;100547.38;5083011;27;66524;-65
2023/08/25 05:05:56;;;;;;;;;41.33;34.00;;;;;24.06;76.17;100538.34;5092521;27;45403;-65
2023/08/25 05:08:21;;;;;;;;;43.00;35.67;;;;;24.10;76.90;100539.69;5055694;27;51085;-56
2023/08/25 05:10:47;;;;;;;;;43.67;36.33;;;;;24.07;77.21;100539.22;5090691;27;68108;-57
2023/08/25 05:13:12;;;;;;;;;49.67;38.67;;;;;24.04;76.98;100534.09;5081082;27;46152;-56
2023/08/25 05:15:37;;;;;;;;;46.33;38.67;;;;;24.00;77.40;100536.34;5086796;27;71308;-57
2023/08/25 05:18:03;;;;;;;;;49.00;38.33;;;;;23.95;77.10;100530.56;5092812;27;69491;-57
2023/08/25 05:20:28;;;;;;;;;50.67;39.00;;;;;23.93;77.12;100540.75;5067194;27;45621;-56
2023/08/25 05:22:53;;;;;;;;;45.67;37.33;;;;;23.88;76.89;100541.22;5089181;27;48567;-58
2023/08/25 05:25:22;;;;;;;;;41.67;36.33;;;;;23.86;76.86;100551.41;5089140;27;59803;-57
2023/08/25 05:27:47;;;;;;;;;44.67;36.33;;;;;23.83;77.04;100561.75;5089994;27;45477;-57
2023/08/25 05:30:13;;;;;;;;;46.00;33.67;;;;;23.80;77.05;100560.22;5090680;27;45457;-57
2023/08/25 05:32:38;;;;;;;;;47.67;37.67;;;;;23.76;76.84;100557.00;5068687;27;46074;-57
2023/08/25 05:35:04;;;;;;;;;41.67;35.00;;;;;23.72;76.45;100561.06;5089383;27;62328;-57
2023/08/25 05:37:29;;;;;;;;;43.33;36.00;;;;;23.69;77.34;100568.69;5080941;27;45406;-56
2023/08/25 05:39:55;;;;;;;;;46.00;35.67;;;;;23.66;76.94;100578.03;5078836;27;71871;-57
2023/08/25 05:42:20;;;;;;;;;38.33;33.67;;;;;23.65;77.27;100591.78;5084916;27;45474;-56
2023/08/25 05:44:46;;;;;;;;;47.67;38.67;;;;;23.62;77.46;100588.41;5081716;27;45308;-56
2023/08/25 05:47:11;;;;;;;;;44.67;36.33;;;;;23.59;77.57;100596.03;5093445;27;45370;-55
2023/08/25 05:49:36;;;;;;;;;43.33;35.67;;;;;23.58;76.71;100591.59;5089049;27;45343;-55
2023/08/25 05:52:02;;;;;;;;;44.67;35.00;;;;;23.55;77.49;100603.63;5090039;27;68676;-56
2023/08/25 05:54:27;;;;;;;;;41.00;35.00;;;;;23.54;77.30;100596.50;5092468;27;46328;-57
2023/08/25 05:56:56;;;;;;;;;36.67;33.00;;;;;23.54;76.44;100607.34;5093481;27;62762;-55
2023/08/25 05:59:21;;;;;;;;;41.33;33.33;;;;;23.53;76.76;100594.84;5080564;27;45469;-55
2023/08/25 06:01:47;;;;;;;;;37.33;33.00;;;;;23.50;77.09;100599.72;5091227;27;75414;-55
2023/08/25 06:04:12;;;;;;;;;39.00;34.00;;;;;23.45;76.92;100592.06;5086684;27;45688;-55
2023/08/25 06:06:38;;;;;;;;;28.00;24.00;;;;;23.42;77.27;100587.00;5091487;27;45906;-68
2023/08/25 06:09:04;;;;;;;;;30.67;29.33;;;;;23.45;77.49;100571.25;5073677;27;45540;-68
2023/08/25 06:11:29;;;;;;;;;31.33;30.00;;;;;23.53;76.94;100558.69;5085807;27;46578;-67
2023/08/25 06:13:54;;;;;;;;;28.33;27.00;;;;;23.56;77.60;100563.78;5083692;27;45331;-67
2023/08/25 06:16:20;;;;;;;;;43.00;33.00;;;;;23.58;77.80;100567.16;5087299;27;45430;-66
2023/08/25 06:18:46;;;;;;;;;37.67;32.67;;;;;23.61;76.92;100573.13;5091123;27;45726;-66
2023/08/25 06:21:11;;;;;;;;;30.67;28.67;;;;;23.63;77.27;100578.38;5087675;27;71011;-66
2023/08/25 06:23:36;;;;;;;;;37.67;31.33;;;;;23.60;77.50;100576.84;5093462;27;45261;-64
2023/08/25 06:26:02;;;;;;;;;33.00;28.67;;;;;23.60;77.11;100589.59;5091655;27;45326;-57
2023/08/25 06:28:27;;;;;;;;;33.00;30.33;;;;;23.60;77.17;100593.13;5086001;27;66432;-57
2023/08/25 06:30:52;;;;;;;;;32.33;27.67;;;;;23.57;76.76;100596.19;5084347;27;74234;-57
2023/08/25 06:33:18;;;;;;;;;28.67;26.67;;;;;23.55;76.64;100591.94;5092451;27;45371;-58
2023/08/25 06:35:43;;;;;;;;;22.00;22.00;;;;;23.50;77.47;100591.59;5090695;27;65837;-58
2023/08/25 06:38:08;;;;;;;;;22.33;22.33;;;;;23.50;77.15;100600.56;5086632;27;45705;-58
2023/08/25 06:40:34;;;;;;;;;25.67;25.33;;;;;23.49;77.10;100604.28;5070557;28;70812;-57
2023/08/25 06:43:01;;;;;;;;;23.00;20.67;;;;;23.45;77.24;100598.38;5083999;27;45507;-59
2023/08/25 06:45:27;;;;;;;;;24.00;20.33;;;;;23.41;77.55;100598.84;5073699;27;45600;-61
2023/08/25 06:47:54;;;;;;;;;24.67;23.00;;;;;23.38;77.33;100594.63;5069440;27;45423;-60
2023/08/25 06:50:20;;;;;;;;;24.67;24.00;;;;;23.36;77.47;100585.81;5085827;27;46174;-59
2023/08/25 06:52:45;;;;;;;;;22.00;19.33;;;;;23.39;77.47;100585.47;5089767;27;45328;-59
2023/08/25 06:55:11;;;;;;;;;26.33;24.00;;;;;23.43;77.39;100573.25;5087863;27;58641;-60
2023/08/25 06:57:36;;;;;;;;;25.00;23.00;;;;;23.42;77.46;100582.41;5087800;27;45794;-59
2023/08/25 07:00:04;;;;;;;;;20.67;20.67;;;;;23.46;77.73;100591.91;5077204;27;70531;-58
2023/08/25 07:02:30;;;;;;;;;21.67;21.33;;;;;23.46;77.66;100597.34;5070626;27;45616;-57
2023/08/25 07:04:55;;;;;;;;;18.00;18.00;;;;;23.45;76.61;100581.22;5081282;27;61658;-57
2023/08/25 07:07:26;;;;;;;;;17.00;16.33;;;;;23.44;76.49;100587.66;5088223;27;66516;-57
2023/08/25 07:09:53;;;;;;;;;17.67;16.33;;;;;23.48;77.83;100580.03;5096978;27;46292;-50
2023/08/25 07:12:18;;;;;;;;;13.67;12.67;;;;;23.55;77.11;100583.81;5086906;27;45655;-52
2023/08/25 07:14:44;;;;;;;;;15.33;14.67;;;;;23.71;76.67;100580.25;5085266;27;45304;-50
2023/08/25 07:17:09;;;;;;;;;11.33;11.00;;;;;23.80;76.04;100579.25;5093587;27;45378;-49
2023/08/25 07:19:34;;;;;;;;;12.00;10.33;;;;;23.91;75.50;100580.78;5065804;28;74685;-50
2023/08/25 07:21:59;;;;;;;;;17.67;16.33;;;;;23.97;75.26;100588.28;5078794;27;67269;-47
2023/08/25 07:24:25;;;;;;;;;18.00;14.00;;;;;24.01;75.18;100584.19;5089102;27;64194;-51
2023/08/25 07:26:50;;;;;;;;;13.67;13.67;;;;;24.07;74.78;100586.22;5085247;27;64376;-51
2023/08/25 07:29:16;;;;;;;;;16.67;15.67;;;;;24.16;74.24;100576.22;5062974;27;46049;-52
2023/08/25 07:31:41;;;;;;;;;14.00;14.00;;;;;24.16;74.38;100584.38;5085899;27;45453;-50
2023/08/25 07:34:06;;;;;;;;;11.67;11.67;;;;;24.14;74.30;100597.25;5091014;27;60895;-50
2023/08/25 07:36:31;;;;;;;;;15.33;14.00;;;;;24.09;74.15;100597.78;5084215;27;51298;-52
2023/08/25 07:38:57;;;;;;;;;14.67;12.67;;;;;24.05;73.99;100611.88;5089793;27;66321;-49
2023/08/25 07:41:22;;;;;;;;;16.00;14.00;;;;;23.96;73.82;100611.00;5090262;27;45564;-52
2023/08/25 07:43:48;;;;;;;;;18.00;15.00;;;;;23.87;74.80;100615.56;5098515;27;45405;-48
2023/08/25 07:46:14;;;;;;;;;14.33;11.67;;;;;23.78;73.93;100627.44;5082031;27;45379;-53
2023/08/25 07:48:39;;;;;;;;;16.67;13.67;;;;;23.71;74.74;100624.53;5077969;27;46237;-53
2023/08/25 07:51:05;;;;;;;;;13.00;12.33;;;;;23.65;74.78;100627.06;5095403;27;72840;-49
2023/08/25 07:53:31;;;;;;;;;15.00;11.33;;;;;23.57;75.16;100631.47;5091500;27;69153;-52
2023/08/25 07:55:57;;;;;;;;;11.33;8.67;;;;;23.52;75.37;100633.84;5076326;27;45626;-49
2023/08/25 07:58:22;;;;;;;;;11.00;8.00;;;;;23.48;75.18;100643.31;5085988;27;46234;-52
2023/08/25 08:00:49;;;;;;;;;9.67;7.67;;;;;23.46;75.84;100648.06;5082425;27;45305;-52
2023/08/25 08:03:15;;;;;;;;;7.00;5.00;;;;;23.40;75.47;100648.72;5052670;27;45453;-52
2023/08/25 08:05:40;;;;;;;;;6.00;6.00;;;;;23.34;75.31;100649.38;5085354;27;45318;-51
2023/08/25 08:08:06;;;;;;;;;5.00;5.00;;;;;23.31;75.53;100656.00;5092954;27;46527;-52
2023/08/25 08:10:31;;;;;;;;;6.75;6.00;;;;;23.29;75.69;100645.28;5086307;27;45399;-51
2023/08/25 08:12:57;;;;;;;;;2.75;1.00;;;;;23.28;75.67;100659.88;5090101;27;45545;-50
2023/08/25 08:15:23;;;;;;;;;6.00;5.00;;;;;23.32;75.85;100662.25;5068593;27;45536;-54
2023/08/25 08:17:49;;;;;;;;;5.75;5.00;;;;;23.31;76.26;100668.69;5085066;27;46856;-51
2023/08/25 08:20:14;;;;;;;;;3.50;3.50;;;;;23.28;75.29;100661.72;5081125;27;45448;-49
2023/08/25 08:22:40;;;;;;;;;4.25;3.75;;;;;23.24;75.61;100661.19;5093967;27;68108;-54
2023/08/25 08:25:10;;;;;;;;;3.00;3.00;;;;;23.21;75.74;100666.97;5086885;27;45471;-50
2023/08/25 08:27:36;;;;;;;;;3.75;2.25;;;;;23.21;75.48;100666.97;5096381;27;46216;-53
2023/08/25 08:30:01;;;;;;;;;2.25;2.25;;;;;23.20;75.46;100678.81;5092665;27;45757;-49
2023/08/25 08:32:26;;;;;;;;;3.00;3.00;;;;;23.24;75.18;100679.34;5085927;27;45526;-53
2023/08/25 08:34:52;;;;;;;;;4.00;3.00;;;;;23.28;75.42;100681.59;5064758;27;65416;-51
2023/08/25 08:37:17;;;;;;;;;2.00;2.00;;;;;23.35;74.85;100681.78;5081164;27;71664;-54
2023/08/25 08:39:44;;;;;;;;;3.25;2.00;;;;;23.36;74.04;100690.75;5092219;27;45399;-52
2023/08/25 08:42:14;;;;;;;;;0.75;0.75;;;;;23.33;73.41;100701.94;5086344;27;45647;-52
2023/08/25 08:44:45;;;;;;;;;1.25;1.25;;;;;23.26;72.53;100701.75;5090172;27;45260;-52
2023/08/25 08:47:10;;;;;;;;;2.00;2.00;;;;;23.21;72.60;100715.78;5090931;27;46294;-51
2023/08/25 08:49:36;;;;;;;;;1.00;1.00;;;;;23.21;72.22;100710.38;5086236;27;70218;-52
2023/08/25 08:52:05;;;;;;;;;2.00;2.00;;;;;23.21;71.92;100715.78;5090400;27;45465;-49
2023/08/25 08:54:32;;;;;;;;;2.00;2.00;;;;;23.22;71.50;100719.34;5065056;27;45606;-51
2023/08/25 08:56:59;;;;;;;;;1.25;1.25;;;;;23.22;71.42;100709.34;5091011;27;47118;-52
2023/08/25 08:59:25;;;;;;;;;2.00;2.00;;;;;23.25;71.16;100710.91;5063159;27;45387;-52
2023/08/25 09:01:51;;;;;;;;;3.00;1.75;;;;;23.32;71.23;100708.38;5091799;27;45340;-52
2023/08/25 09:04:20;;;;;;;;;1.50;1.00;;;;;23.48;71.60;100721.16;5092096;27;45769;-53
2023/08/25 09:06:46;;;;;;;;;2.25;2.25;;;;;23.61;71.03;100718.88;5084502;27;46481;-49
2023/08/25 09:09:12;;;;;;;;;1.00;1.00;;;;;23.69;70.22;100715.28;5077781;27;70115;-53
2023/08/25 09:11:38;;;;;;;;;8.75;3.00;;;;;23.80;69.07;100715.00;5070027;27;63361;-53
2023/08/25 09:14:07;;;;;;;;;2.00;2.00;;;;;23.89;69.07;100724.03;5078927;27;45637;-50
2023/08/25 09:16:35;;;;;;;;;2.50;2.00;;;;;23.86;68.16;100722.50;5083228;27;46372;-51
2023/08/25 09:19:04;;;;;;;;;1.50;1.50;;;;;23.90;67.88;100725.75;5093839;27;45410;-49
2023/08/25 09:21:30;;;;;;;;;2.00;2.00;;;;;23.86;67.28;100727.09;5088928;27;45467;-50
2023/08/25 09:23:58;;;;;;;;;5.00;3.50;;;;;23.83;67.91;100728.25;5084057;27;45681;-53
2023/08/25 09:26:25;;;;;;;;;1.00;1.00;;;;;23.94;67.89;100727.13;5091514;27;46132;-53
2023/08/25 09:28:57;;;;;;;;;4.00;3.25;;;;;24.01;67.24;100733.56;5089855;27;45534;-54
2023/08/25 09:31:29;;;;;;;;;4.25;4.00;;;;;24.01;66.88;100747.16;5096180;27;45476;-53
2023/08/25 09:34:06;;;;;;;;;3.00;3.00;;;;;23.98;66.96;100746.66;5088899;27;45554;-54
2023/08/25 09:36:32;;;;;;;;;4.00;2.25;;;;;23.93;66.09;100747.16;5093850;27;45425;-53
2023/08/25 09:38:58;;;;;;;;;3.25;3.25;;;;;23.90;66.17;100753.75;5087261;27;45447;-52
2023/08/25 09:41:30;;;;;;;;;2.75;2.50;;;;;23.87;66.68;100755.91;5084887;27;45427;-53
2023/08/25 09:43:59;;;;;;;;;5.50;3.00;;;;;23.85;66.28;100752.53;5089491;27;45346;-52
2023/08/25 09:46:29;;;;;;;;;4.00;2.25;;;;;23.85;65.43;100756.09;5070668;27;46209;-51
2023/08/25 09:49:05;;;;;;;;;3.50;3.00;;;;;23.87;66.06;100761.34;5062141;27;45625;-53
2023/08/25 09:51:39;;;;;;;;;4.75;2.00;;;;;23.86;65.40;100765.94;5088665;27;45509;-52
2023/08/25 09:54:16;;;;;;;;;3.50;3.00;;;;;23.86;65.03;100767.81;5084227;27;45604;-50
2023/08/25 09:56:43;;;;;;;;;3.25;3.25;;;;;23.86;65.33;100774.09;5086510;27;45592;-52
2023/08/25 09:59:10;;;;;;;;;2.50;2.50;;;;;23.88;65.58;100768.50;5084481;27;45567;-52
2023/08/25 10:01:41;;;;;;;;;5.00;3.50;;;;;23.91;65.54;100766.34;5079468;27;45843;-53
2023/08/25 10:04:07;;;;;;;;;4.00;2.00;;;;;23.99;65.30;100762.78;5088569;27;45551;-52
2023/08/25 10:06:35;;;;;;;;;2.50;2.50;;;;;24.03;65.22;100766.88;5088183;27;45490;-52
2023/08/25 10:09:01;;;;;;;;;3.75;3.75;;;;;24.05;64.18;100772.13;5084809;27;45483;-52
2023/08/25 10:11:31;;;;;;;;;5.00;4.00;;;;;24.02;64.43;100767.03;5092844;27;45315;-54
2023/08/25 10:14:00;;;;;;;;;2.00;2.00;;;;;24.03;64.09;100768.75;5072500;27;45635;-53
2023/08/25 10:16:26;;;;;;;;;3.75;3.75;;;;;24.06;63.97;100757.53;5086145;27;45831;-51
2023/08/25 10:18:57;;;;;;;;;3.75;2.75;;;;;24.10;62.94;100761.63;5067013;27;72422;-53
2023/08/25 10:21:24;;;;;;;;;3.75;3.75;;;;;24.16;63.21;100754.66;5078277;27;45396;-52
2023/08/25 10:23:52;;;;;;;;;4.00;3.00;;;;;24.22;62.43;100773.00;5085076;27;45411;-49
2023/08/25 10:26:18;;;;;;;;;5.00;4.00;;;;;24.24;62.28;100763.69;5068491;27;45499;-57
2023/08/25 10:28:44;;;;;;;;;3.25;3.25;;;;;24.26;62.40;100763.50;5089924;27;55994;-56
2023/08/25 10:31:12;;;;;;;;;4.00;4.00;;;;;24.25;62.07;100770.81;5058232;27;45339;-56
2023/08/25 10:33:51;;;;;;;;;7.25;3.25;;;;;24.21;62.75;100772.19;5087279;27;57381;-55
2023/08/25 10:36:19;;;;;;;;;4.75;4.50;;;;;24.16;62.47;100790.84;5079124;27;47301;-56
2023/08/25 10:38:46;;;;;;;;;6.75;3.00;;;;;24.12;62.73;100786.75;5086580;27;45398;-56
2023/08/25 10:41:14;;;;;;;;;5.00;4.25;;;;;24.05;62.47;100783.00;5078584;27;46544;-56
2023/08/25 10:43:41;;;;;;;;;3.00;3.00;;;;;24.03;62.49;100780.44;5087920;27;45502;-57
2023/08/25 10:46:07;;;;;;;;;2.75;2.75;;;;;24.02;62.61;100781.47;5079219;27;45518;-57
2023/08/25 10:48:32;;;;;;;;;9.50;6.50;;;;;24.04;63.11;100775.84;5066455;27;46985;-61
2023/08/25 10:51:16;;;;;;;;;8.00;5.00;;;;;24.05;63.21;100788.44;5089029;27;62932;-61
2023/08/25 10:53:46;;;;;;;;;5.00;5.00;;;;;24.02;62.69;100783.34;5082550;27;45773;-61
2023/08/25 10:56:14;;;;;;;;;7.25;6.00;;;;;23.97;63.39;100778.38;5088098;27;46120;-62
2023/08/25 10:58:40;;;;;;;;;7.25;5.00;;;;;23.96;63.50;100784.81;5061430;27;45892;-62
2023/08/25 11:01:05;;;;;;;;;7.25;6.00;;;;;23.95;63.41;100783.16;5084411;27;45371;-65
2023/08/25 11:04:08;;;;;;;;;5.50;5.50;;;;;23.94;63.44;100779.56;5079484;27;67201;-67
2023/08/25 11:06:47;;;;;;;;;5.00;5.00;;;;;23.97;63.74;100780.28;5091803;27;47119;-66
2023/08/25 11:09:18;;;;;;;;;6.50;6.50;;;;;24.08;63.64;100777.25;5079595;27;45442;-64
2023/08/25 11:11:45;;;;;;;;;7.25;4.00;;;;;24.15;63.12;100785.59;5078559;27;45483;-64
2023/08/25 11:14:14;;;;;;;;;6.25;6.00;;;;;24.20;62.55;100780.50;5092768;27;45727;-65